Kenora Airport
CYQK : rendu visible

Aérodrome :











RETROUVEZ-NOUS SUR...

 
LOGIN :

S'inscrire | Disclaimer

   EN    FR    IT 

 









Légende :    VFR   VFR Marginal   IFR   IFR Intensif   IFR Très Intensif
Visi : 
Plafond : 
>= 8 km
>= 3000ft
5 à 8 km
1000 à 3000 ft
1500m à 5 km
500 à 1000 ft
800 à 1500m
200 à 500 ft
< 800m
< 200 ft
Symboles :   Orages  Brouillard  Fortes neiges  Fortes précipitations  Vent > 20 kt






- Altitude de l'aérodrome : 1332 ft
- Code IATA : YQK


CYQK - Kenora

DERNIER METAR :
  • 051700Z 15004KT 110V200 20SM SCT045 SCT120 BKN220 BKN260 28/21 A2991 RMK CU2AC1CI2CI2 TCU ASOCTD SLP126 DENSITY ALT 3200FT

METARs EXPIRÉS :
  • 051600Z 15005KT 120V190 15SM FEW045TCU SCT120 BKN220 27/20 A2992 RMK TCU3AC1CI2 SLP131 DENSITY ALT 3100FT
  • 051500Z 15005KT 20SM SCT038TCU SCT120 BKN220 BKN260 25/20 A2994 RMK TCU3AC1CI1CI2 SLP136 DENSITY ALT 2800FT

TAF TAF CYQK
Valide du 05 à 14h jusqu'au 06 à 02h UTC


051340Z 0514/0602 16007KT P6SM FEW100 BKN260
FM051800 18010KT P6SM SCT050 BKN250
PROB30 0519/0522 2SM +TSRA BR BKN040CB OVC060
FM052200 21012KT P6SM SCT030 BKN050
TEMPO 0522/0602 5SM -SHRA BR BKN030
PROB40 0522/0602 VRB15G25KT 2SM +TSRA BR BKN006 OVC030CB RMK NXT FCST BY 052000Z
FIR CZWG / Amérique du Nord



MET'MAP, la Météo Aéronautique d'un coup d'oeil ! - Copyright ORBIFLY Décembre 2007 - Disclaimer

ORBIFLY MET'MAP TEAM :

Programmation & Développement : Alexandra Zaïnal
Sur une idée originale de : Baudouin d'Aumeries
Assistance à la programmation : Marc-Olivier Méhu
Soutien technique & logistique : Manuel Goepfert

Contact : metmap@orbifly.com




SOURCES & CREDITS :

   NOAA       Earth
Advisory